Terminal Aerodrome Forecast
Issued by NWS Missoula, MT

Home | Current Version | Previous Version | Text Only | Print | Product List | Glossary On
Versions: 1 2 3 4 5 6 7 8 9 10 11 12 13 14
000
FTUS45 KMSO 190143 AAB
TAFMSO
TAF AMD
KMSO 190143Z 1902/1924 VRB03KT P6SM OVC050
      TEMPO 1902/1905 5SM -SN BKN035
     FM191200 00000KT 5SM BR OVC035=

USA.gov is the U.S. government's official web portal to all federal, state and local government web resources and services.